createdAt,value
2023-12-17T00:00:06.290Z,1.18
2023-12-17T00:02:09.443Z,1.16
2023-12-17T00:04:11.971Z,1.16
2023-12-17T00:06:14.613Z,1.14
2023-12-17T00:08:21.996Z,1.13
2023-12-17T00:10:24.786Z,1.13
2023-12-17T00:12:27.722Z,1.10
2023-12-17T00:14:30.206Z,1.10
2023-12-17T00:16:32.774Z,1.04
2023-12-17T00:18:35.575Z,1.10
2023-12-17T00:20:38.194Z,1.06
2023-12-17T00:22:40.677Z,1.05
2023-12-17T00:24:43.130Z,1.04
2023-12-17T00:26:46.347Z,1.03
2023-12-17T00:28:48.765Z,1.03
2023-12-17T00:30:52.316Z,1.02
2023-12-17T00:32:54.979Z,1.03
2023-12-17T00:34:57.448Z,0.97
2023-12-17T00:37:00.375Z,0.99
2023-12-17T00:39:02.964Z,0.95
2023-12-17T00:41:05.922Z,0.96
2023-12-17T00:43:08.446Z,0.96
2023-12-17T00:45:12.003Z,0.93
2023-12-17T00:47:14.729Z,0.93
2023-12-17T00:49:17.349Z,0.92
2023-12-17T00:51:20.635Z,0.92
2023-12-17T00:53:23.190Z,0.90
2023-12-17T00:55:26.746Z,0.89
2023-12-17T00:57:29.283Z,0.87
2023-12-17T00:59:31.743Z,0.83
2023-12-17T01:01:34.225Z,0.84
2023-12-17T01:03:37.003Z,0.80
2023-12-17T01:05:40.370Z,0.82
2023-12-17T01:07:43.630Z,0.81
2023-12-17T01:09:46.130Z,0.79
2023-12-17T01:11:48.603Z,0.79
2023-12-17T01:13:51.860Z,0.76
2023-12-17T01:15:54.813Z,0.74
2023-12-17T01:17:57.673Z,0.73
2023-12-17T01:20:00.786Z,0.73
2023-12-17T01:22:03.843Z,0.73
2023-12-17T01:24:06.560Z,0.73
2023-12-17T01:26:10.388Z,0.70
2023-12-17T01:28:12.992Z,0.69
2023-12-17T01:30:16.067Z,0.64
2023-12-17T01:32:18.578Z,0.64
2023-12-17T01:34:21.921Z,0.62
2023-12-17T01:36:24.933Z,0.57
2023-12-17T01:38:27.923Z,0.60
2023-12-17T01:40:32.348Z,0.60
2023-12-17T01:42:35.318Z,0.55
2023-12-17T01:44:37.742Z,0.54
2023-12-17T01:46:41.653Z,0.55
2023-12-17T01:48:45.331Z,0.51
2023-12-17T01:50:49.326Z,0.53
2023-12-17T01:52:52.067Z,0.51
2023-12-17T01:54:54.546Z,0.52
2023-12-17T01:56:57.673Z,0.52
2023-12-17T01:59:00.420Z,0.50
2023-12-17T02:01:03.610Z,0.46
2023-12-17T02:03:07.158Z,0.48
2023-12-17T02:05:10.928Z,0.44
2023-12-17T02:07:13.964Z,0.46
2023-12-17T02:09:16.762Z,0.45
2023-12-17T02:11:19.293Z,0.42
2023-12-17T02:13:21.740Z,0.39
2023-12-17T02:15:24.245Z,0.41
2023-12-17T02:17:35.599Z,0.41
2023-12-17T02:19:38.133Z,0.29
2023-12-17T02:21:40.722Z,0.35
2023-12-17T02:23:43.272Z,0.34
2023-12-17T02:25:45.924Z,0.33
2023-12-17T02:27:49.206Z,0.29
2023-12-17T02:29:52.726Z,0.26
2023-12-17T02:31:55.187Z,0.25
2023-12-17T02:33:57.810Z,0.27
2023-12-17T02:36:00.838Z,0.26
2023-12-17T02:38:03.346Z,0.24
2023-12-17T02:40:06.440Z,0.25
2023-12-17T02:42:09.507Z,0.27
2023-12-17T02:44:11.997Z,0.25
2023-12-17T02:46:14.604Z,0.25
2023-12-17T02:48:17.335Z,0.21
2023-12-17T02:50:19.869Z,0.19
2023-12-17T02:52:23.217Z,0.17
2023-12-17T02:54:25.930Z,0.18
2023-12-17T02:56:28.402Z,0.19
2023-12-17T02:58:30.875Z,0.18
2023-12-17T03:00:33.486Z,0.11
2023-12-17T03:02:35.973Z,0.16
2023-12-17T03:04:38.408Z,0.10
2023-12-17T03:06:42.385Z,0.13
2023-12-17T03:08:44.848Z,0.07
2023-12-17T03:10:47.351Z,0.11
2023-12-17T03:12:49.852Z,0.11
2023-12-17T03:14:52.368Z,0.10
2023-12-17T03:16:54.813Z,0.09
2023-12-17T03:18:58.585Z,0.08
2023-12-17T03:21:01.857Z,0.04
2023-12-17T03:23:04.280Z,0.06
2023-12-17T03:25:07.614Z,-0.00
2023-12-17T03:27:10.845Z,0.01
2023-12-17T03:29:13.271Z,0.02
2023-12-17T03:31:16.947Z,-0.00
2023-12-17T03:33:19.762Z,0.00
2023-12-17T03:35:22.379Z,-0.01
2023-12-17T03:37:24.858Z,-0.04
2023-12-17T03:39:27.338Z,-0.02
2023-12-17T03:41:30.507Z,-0.03
2023-12-17T03:43:33.891Z,-0.05
2023-12-17T03:45:37.178Z,-0.04
2023-12-17T03:47:49.395Z,-0.07
2023-12-17T03:49:51.925Z,-0.08
2023-12-17T03:51:54.391Z,-0.10
2023-12-17T03:53:57.053Z,-0.13
2023-12-17T03:56:01.014Z,-0.15
2023-12-17T03:58:03.480Z,-0.19
2023-12-17T04:00:06.713Z,-0.18
2023-12-17T04:02:09.770Z,-0.18
2023-12-17T04:04:12.233Z,-0.23
2023-12-17T04:06:14.784Z,-0.25
2023-12-17T04:08:17.694Z,-0.25
2023-12-17T04:10:20.810Z,-0.30
2023-12-17T04:12:24.014Z,-0.28
2023-12-17T04:14:26.805Z,-0.33
2023-12-17T04:16:29.334Z,-0.31
2023-12-17T04:18:31.980Z,-0.33
2023-12-17T04:20:34.534Z,-0.32
2023-12-17T04:22:37.846Z,-0.35
2023-12-17T04:24:40.964Z,-0.35
2023-12-17T04:26:44.165Z,-0.38
2023-12-17T04:28:47.321Z,-0.38
2023-12-17T04:30:49.884Z,-0.39
2023-12-17T04:32:52.569Z,-0.41
2023-12-17T04:34:57.141Z,-0.41
2023-12-17T04:37:01.299Z,-0.41
2023-12-17T04:39:04.261Z,-0.41
2023-12-17T04:41:07.057Z,-0.49
2023-12-17T04:43:09.501Z,-0.49
2023-12-17T04:45:11.976Z,-0.47
2023-12-17T04:47:15.268Z,-0.49
2023-12-17T04:49:18.386Z,-0.53
2023-12-17T04:51:20.994Z,-0.50
2023-12-17T04:53:24.223Z,-0.54
2023-12-17T04:55:26.930Z,-0.54
2023-12-17T04:57:29.423Z,-0.53
2023-12-17T04:59:31.945Z,-0.58
2023-12-17T05:01:34.364Z,-0.56
2023-12-17T05:03:37.842Z,-0.68
2023-12-17T05:05:40.343Z,-0.61
2023-12-17T05:07:43.655Z,-0.64
2023-12-17T05:09:46.123Z,-0.61
2023-12-17T05:11:49.268Z,-0.61
2023-12-17T05:13:52.494Z,-0.61
2023-12-17T05:15:55.019Z,-0.65
2023-12-17T05:18:09.539Z,-0.62
2023-12-17T05:20:12.285Z,-0.66
2023-12-17T05:22:15.200Z,-0.62
2023-12-17T05:24:17.646Z,-0.63
2023-12-17T05:26:20.067Z,-0.62
2023-12-17T05:28:22.569Z,-0.66
2023-12-17T05:30:25.540Z,-0.66
2023-12-17T05:32:28.963Z,-0.65
2023-12-17T05:34:31.582Z,-0.70
2023-12-17T05:36:34.459Z,-0.68
2023-12-17T05:38:36.883Z,-0.68
2023-12-17T05:40:39.407Z,-0.69
2023-12-17T05:42:41.878Z,-0.69
2023-12-17T05:44:45.149Z,-0.66
2023-12-17T05:46:47.655Z,-0.64
2023-12-17T05:48:50.721Z,-0.65
2023-12-17T05:50:54.049Z,-0.66
2023-12-17T05:52:57.082Z,-0.68
2023-12-17T05:54:59.969Z,-0.70
2023-12-17T05:57:02.774Z,-0.70
2023-12-17T05:59:05.315Z,-0.69
2023-12-17T06:01:09.542Z,-0.66
2023-12-17T06:03:13.566Z,-0.68
2023-12-17T06:05:16.155Z,-0.69
2023-12-17T06:07:19.795Z,-0.71
2023-12-17T06:09:23.070Z,-0.70
2023-12-17T06:11:25.557Z,-0.73
2023-12-17T06:13:28.393Z,-0.74
2023-12-17T06:15:30.882Z,-0.76
2023-12-17T06:17:33.737Z,-0.76
2023-12-17T06:19:38.485Z,-0.74
2023-12-17T06:21:41.059Z,-0.75
2023-12-17T06:23:43.564Z,-0.76
2023-12-17T06:25:45.973Z,-0.77
2023-12-17T06:27:50.174Z,-0.76
2023-12-17T06:29:53.851Z,-0.83
2023-12-17T06:31:56.285Z,-0.81
2023-12-17T06:33:59.048Z,-0.78
2023-12-17T06:36:01.655Z,-0.78
2023-12-17T06:38:04.114Z,-0.81
2023-12-17T06:40:09.275Z,-0.86
2023-12-17T06:42:11.928Z,-0.84
2023-12-17T06:44:14.387Z,-0.82
2023-12-17T06:46:20.137Z,-0.80
2023-12-17T06:48:22.809Z,-0.83
2023-12-17T06:50:26.111Z,-0.88
2023-12-17T06:52:29.125Z,-0.87
2023-12-17T06:54:32.337Z,-0.88
2023-12-17T06:56:34.894Z,-0.89
2023-12-17T06:58:38.164Z,-0.86
2023-12-17T07:00:41.039Z,-0.89
2023-12-17T07:02:43.776Z,-0.86
2023-12-17T07:04:46.358Z,-0.89
2023-12-17T07:06:49.527Z,-0.86
2023-12-17T07:08:52.877Z,-0.89
2023-12-17T07:10:55.442Z,-0.87
2023-12-17T07:12:58.006Z,-0.89
2023-12-17T07:15:00.573Z,-0.93
2023-12-17T07:17:03.041Z,-0.89
2023-12-17T07:19:05.842Z,-0.92
2023-12-17T07:21:08.494Z,-0.95
2023-12-17T07:23:10.976Z,-0.91
2023-12-17T07:25:13.531Z,-0.99
2023-12-17T07:27:16.137Z,-0.97
2023-12-17T07:29:18.611Z,-0.96
2023-12-17T07:31:21.222Z,-1.04
2023-12-17T07:33:23.897Z,-0.97
2023-12-17T07:35:26.427Z,-0.94
2023-12-17T07:37:28.867Z,-0.92
2023-12-17T07:39:31.457Z,-0.94
2023-12-17T07:41:34.913Z,-0.95
2023-12-17T07:43:38.533Z,-0.93
2023-12-17T07:45:40.949Z,-0.92
2023-12-17T07:47:45.541Z,-0.96
2023-12-17T07:49:48.968Z,-0.92
2023-12-17T07:51:51.847Z,-0.94
2023-12-17T07:53:55.304Z,-0.91
2023-12-17T07:55:59.309Z,-0.95
2023-12-17T07:58:01.813Z,-0.99
2023-12-17T08:00:05.525Z,-0.95
2023-12-17T08:02:08.521Z,-1.01
2023-12-17T08:04:11.273Z,-0.94
2023-12-17T08:06:13.891Z,-0.95
2023-12-17T08:08:16.998Z,-0.97
2023-12-17T08:10:19.722Z,-0.95
2023-12-17T08:12:22.955Z,-0.92
2023-12-17T08:14:26.160Z,-0.92
2023-12-17T08:16:29.186Z,-0.92
2023-12-17T08:18:32.093Z,-0.93
2023-12-17T08:20:35.084Z,-0.96
2023-12-17T08:22:37.512Z,-0.95
2023-12-17T08:24:39.928Z,-0.93
2023-12-17T08:26:42.790Z,-0.95
2023-12-17T08:28:45.262Z,-0.93
2023-12-17T08:30:48.527Z,-0.95
2023-12-17T08:32:51.540Z,-0.95
2023-12-17T08:34:54.246Z,-0.92
2023-12-17T08:37:00.163Z,-0.90
2023-12-17T08:39:03.184Z,-0.93
2023-12-17T08:41:05.891Z,-0.90
2023-12-17T08:43:11.213Z,-0.90
2023-12-17T08:45:13.723Z,-0.91
2023-12-17T08:47:16.197Z,-0.89
2023-12-17T08:49:19.682Z,-0.95
2023-12-17T08:51:23.578Z,-0.93
2023-12-17T08:53:28.847Z,-0.90
2023-12-17T08:55:31.975Z,-0.93
2023-12-17T08:57:34.543Z,-1.01
2023-12-17T08:59:37.023Z,-0.93
2023-12-17T09:01:39.870Z,-0.93
2023-12-17T09:03:42.862Z,-0.92
2023-12-17T09:05:46.097Z,-0.94
2023-12-17T09:07:48.657Z,-0.92
2023-12-17T09:09:51.492Z,-0.98
2023-12-17T09:11:54.732Z,-0.90
2023-12-17T09:13:57.903Z,-0.92
2023-12-17T09:16:00.471Z,-0.93
2023-12-17T09:18:03.050Z,-0.90
2023-12-17T09:20:06.339Z,-0.92
2023-12-17T09:22:09.322Z,-0.89
2023-12-17T09:24:11.817Z,-0.88
2023-12-17T09:26:14.953Z,-0.85
2023-12-17T09:28:17.643Z,-0.85
2023-12-17T09:30:20.364Z,-0.86
2023-12-17T09:32:22.845Z,-0.82
2023-12-17T09:34:25.553Z,-0.84
2023-12-17T09:36:29.532Z,-0.86
2023-12-17T09:38:34.002Z,-0.83
2023-12-17T09:40:36.613Z,-0.82
2023-12-17T09:42:41.275Z,-0.84
2023-12-17T09:44:44.666Z,-0.84
2023-12-17T09:46:47.884Z,-0.83
2023-12-17T09:48:51.024Z,-0.81
2023-12-17T09:50:54.208Z,-0.82
2023-12-17T09:52:57.341Z,-0.81
2023-12-17T09:55:05.974Z,-0.79
2023-12-17T09:57:09.809Z,-0.83
2023-12-17T09:59:12.842Z,-0.79
2023-12-17T10:01:15.763Z,-0.80
2023-12-17T10:03:19.174Z,-0.82
2023-12-17T10:05:23.394Z,-0.78
2023-12-17T10:07:26.651Z,-0.77
2023-12-17T10:09:29.452Z,-0.79
2023-12-17T10:11:32.984Z,-0.77
2023-12-17T10:13:35.465Z,-0.77
2023-12-17T10:15:38.463Z,-0.75
2023-12-17T10:17:42.633Z,-0.83
2023-12-17T10:19:51.989Z,-0.71
2023-12-17T10:21:54.688Z,-0.72
2023-12-17T10:23:57.149Z,-0.76
2023-12-17T10:26:05.092Z,-0.71
2023-12-17T10:28:10.419Z,-0.79
2023-12-17T10:30:13.780Z,-0.76
2023-12-17T10:32:16.277Z,-0.83
2023-12-17T10:34:22.152Z,-0.71
2023-12-17T10:36:26.050Z,-0.75
2023-12-17T10:38:29.326Z,-0.78
2023-12-17T10:40:32.280Z,-0.72
2023-12-17T10:42:37.324Z,-0.73
2023-12-17T10:44:42.797Z,-0.71
2023-12-17T10:46:47.174Z,-0.69
2023-12-17T10:48:50.689Z,-0.67
2023-12-17T10:50:53.800Z,-0.66
2023-12-17T10:52:56.431Z,-0.67
2023-12-17T10:54:58.955Z,-0.67
2023-12-17T10:57:03.861Z,-0.73
2023-12-17T10:59:10.338Z,-0.71
2023-12-17T11:01:12.994Z,-0.70
2023-12-17T11:03:17.108Z,-0.67
2023-12-17T11:05:19.562Z,-0.65
2023-12-17T11:07:31.623Z,-0.64
2023-12-17T11:09:43.188Z,-0.64
2023-12-17T11:11:49.308Z,-0.65
2023-12-17T11:13:52.972Z,-0.65
2023-12-17T11:15:56.255Z,-0.62
2023-12-17T11:18:00.800Z,-0.63
2023-12-17T11:20:05.113Z,-0.61
2023-12-17T11:22:09.302Z,-0.62
2023-12-17T11:24:12.401Z,-0.64
2023-12-17T11:26:16.705Z,-0.61
2023-12-17T11:28:27.533Z,-0.61
2023-12-17T11:30:34.704Z,-0.62
2023-12-17T11:32:37.558Z,-0.62
2023-12-17T11:34:41.558Z,-0.60
2023-12-17T11:36:45.118Z,-0.57
2023-12-17T11:38:47.918Z,-0.58
2023-12-17T11:40:50.683Z,-0.57
2023-12-17T11:43:00.174Z,-0.59
2023-12-17T11:45:03.701Z,-0.59
2023-12-17T11:47:06.533Z,-0.55
2023-12-17T11:49:09.056Z,-0.55
2023-12-17T11:51:11.610Z,-0.55
2023-12-17T11:53:15.882Z,-0.55
2023-12-17T11:55:19.076Z,-0.56
2023-12-17T11:57:24.795Z,-0.54
2023-12-17T11:59:37.131Z,-0.51
2023-12-17T12:01:39.956Z,-0.51
2023-12-17T12:03:43.720Z,-0.52
2023-12-17T12:05:46.355Z,-0.51
2023-12-17T12:07:53.906Z,-0.54
2023-12-17T12:10:09.013Z,-0.49
2023-12-17T12:12:21.055Z,-0.48
2023-12-17T12:14:23.807Z,-0.50
2023-12-17T12:16:27.378Z,-0.54
2023-12-17T12:18:30.250Z,-0.53
2023-12-17T12:20:39.268Z,-0.48
2023-12-17T12:22:49.422Z,-0.47
2023-12-17T12:24:56.901Z,-0.50
2023-12-17T12:26:59.396Z,-0.50
2023-12-17T12:29:06.092Z,-0.48
2023-12-17T12:31:12.110Z,-0.49
2023-12-17T12:33:16.608Z,-0.44
2023-12-17T12:35:31.148Z,-0.44
2023-12-17T12:37:38.236Z,-0.47
2023-12-17T12:39:59.633Z,-0.42
2023-12-17T12:42:06.091Z,-0.44
2023-12-17T12:44:09.172Z,-0.45
2023-12-17T12:46:11.668Z,-0.45
2023-12-17T12:48:27.958Z,-0.45
2023-12-17T12:50:31.933Z,-0.44
2023-12-17T12:52:34.396Z,-0.41
2023-12-17T12:54:37.462Z,-0.43
2023-12-17T12:56:40.407Z,-0.39
2023-12-17T12:58:43.704Z,-0.41
2023-12-17T13:00:51.573Z,-0.41
2023-12-17T13:02:56.300Z,-0.39
2023-12-17T13:04:59.179Z,-0.40
2023-12-17T13:07:01.704Z,-0.40
2023-12-17T13:09:06.568Z,-0.38
2023-12-17T13:11:09.802Z,-0.38
2023-12-17T13:13:12.249Z,-0.40
2023-12-17T13:15:14.841Z,-0.37
2023-12-17T13:17:17.305Z,-0.37
2023-12-17T13:19:23.604Z,-0.36
2023-12-17T13:21:26.675Z,-0.34
2023-12-17T13:23:29.160Z,-0.37
2023-12-17T13:25:32.359Z,-0.33
2023-12-17T13:27:34.889Z,-0.37
2023-12-17T13:29:37.437Z,-0.35
2023-12-17T13:31:39.885Z,-0.34
2023-12-17T13:33:42.442Z,-0.33
2023-12-17T13:35:44.942Z,-0.32
2023-12-17T13:37:48.497Z,-0.29
2023-12-17T13:39:51.031Z,-0.30
2023-12-17T13:41:59.399Z,-0.27
2023-12-17T13:44:04.673Z,-0.25
2023-12-17T13:46:07.899Z,-0.30
2023-12-17T13:48:14.125Z,-0.32
2023-12-17T13:50:19.812Z,-0.22
2023-12-17T13:52:23.711Z,-0.21
2023-12-17T13:54:26.397Z,-0.19
2023-12-17T13:56:33.638Z,-0.17
2023-12-17T13:58:41.220Z,-0.17
2023-12-17T14:00:43.806Z,-0.16
2023-12-17T14:02:46.377Z,-0.15
2023-12-17T14:04:49.010Z,-0.12
2023-12-17T14:06:51.569Z,-0.14
2023-12-17T14:08:54.784Z,-0.12
2023-12-17T14:10:57.586Z,-0.10
2023-12-17T14:13:01.967Z,-0.06
2023-12-17T14:15:06.238Z,-0.05
2023-12-17T14:17:09.053Z,-0.05
2023-12-17T14:19:12.750Z,-0.04
2023-12-17T14:21:15.291Z,-0.01
2023-12-17T14:23:18.640Z,-0.05
2023-12-17T14:25:21.192Z,0.03
2023-12-17T14:27:23.700Z,0.05
2023-12-17T14:29:26.451Z,0.07
2023-12-17T14:31:30.826Z,0.07
2023-12-17T14:33:33.404Z,0.10
2023-12-17T14:35:35.928Z,0.08
2023-12-17T14:37:38.495Z,0.11
2023-12-17T14:39:41.774Z,0.08
2023-12-17T14:41:44.270Z,0.15
2023-12-17T14:43:47.584Z,0.15
2023-12-17T14:45:50.060Z,0.19
2023-12-17T14:47:52.681Z,0.20
2023-12-17T14:49:55.238Z,0.21
2023-12-17T14:51:57.856Z,0.25
2023-12-17T14:54:01.220Z,0.26
2023-12-17T14:56:03.871Z,0.28
2023-12-17T14:58:09.444Z,0.26
2023-12-17T15:00:12.862Z,0.29
2023-12-17T15:02:15.433Z,0.33
2023-12-17T15:04:17.901Z,0.36
2023-12-17T15:06:20.371Z,0.38
2023-12-17T15:08:23.517Z,0.40
2023-12-17T15:10:25.952Z,0.41
2023-12-17T15:12:28.701Z,0.43
2023-12-17T15:14:31.169Z,0.42
2023-12-17T15:16:33.678Z,0.47
2023-12-17T15:18:38.981Z,0.49
2023-12-17T15:20:43.942Z,0.51
2023-12-17T15:22:47.756Z,0.52
2023-12-17T15:24:50.442Z,0.55
2023-12-17T15:26:52.968Z,0.55
2023-12-17T15:28:55.413Z,0.62
2023-12-17T15:30:57.973Z,0.62
2023-12-17T15:33:00.719Z,0.65
2023-12-17T15:35:03.264Z,0.68
2023-12-17T15:37:05.827Z,0.67
2023-12-17T15:39:08.626Z,0.72
2023-12-17T15:41:21.953Z,0.75
2023-12-17T15:43:24.498Z,0.76
2023-12-17T15:45:27.048Z,0.79
2023-12-17T15:47:30.317Z,0.83
2023-12-17T15:49:32.864Z,0.84
2023-12-17T15:51:35.381Z,0.87
2023-12-17T15:53:39.559Z,0.92
2023-12-17T15:55:42.196Z,0.93
2023-12-17T15:57:45.450Z,0.97
2023-12-17T15:59:48.136Z,0.99
2023-12-17T16:01:50.591Z,1.00
2023-12-17T16:03:54.680Z,1.04
2023-12-17T16:05:57.732Z,1.08
2023-12-17T16:08:01.615Z,1.10
2023-12-17T16:10:04.213Z,1.13
2023-12-17T16:12:07.216Z,1.16
2023-12-17T16:14:09.753Z,1.12
2023-12-17T16:16:19.913Z,1.20
2023-12-17T16:18:22.972Z,1.22
2023-12-17T16:20:26.047Z,1.20
2023-12-17T16:22:30.307Z,1.29
2023-12-17T16:24:32.764Z,1.31
2023-12-17T16:26:35.348Z,1.34
2023-12-17T16:28:38.406Z,1.38
2023-12-17T16:30:45.791Z,1.38
2023-12-17T16:32:48.531Z,1.42
2023-12-17T16:34:50.992Z,1.44
2023-12-17T16:36:53.457Z,1.47
2023-12-17T16:38:58.076Z,1.47
2023-12-17T16:41:00.570Z,1.49
2023-12-17T16:43:06.153Z,1.53
2023-12-17T16:45:09.155Z,1.54
2023-12-17T16:47:11.706Z,1.56
2023-12-17T16:49:14.438Z,1.56
2023-12-17T16:51:17.759Z,1.61
2023-12-17T16:53:21.314Z,1.58
2023-12-17T16:55:25.467Z,1.64
2023-12-17T16:57:28.017Z,1.66
2023-12-17T16:59:30.648Z,1.66
2023-12-17T17:01:33.177Z,1.71
2023-12-17T17:03:36.016Z,1.71
2023-12-17T17:05:38.675Z,1.75
2023-12-17T17:07:41.596Z,1.77
2023-12-17T17:09:44.724Z,1.75
2023-12-17T17:11:47.876Z,1.80
2023-12-17T17:13:50.381Z,1.81
2023-12-17T17:15:53.185Z,1.80
2023-12-17T17:17:55.817Z,1.85
2023-12-17T17:19:59.226Z,1.86
2023-12-17T17:22:02.338Z,1.86
2023-12-17T17:24:05.876Z,1.87
2023-12-17T17:26:09.083Z,1.91
2023-12-17T17:28:11.594Z,1.94
2023-12-17T17:30:14.446Z,1.91
2023-12-17T17:32:17.380Z,1.94
2023-12-17T17:34:20.239Z,2.01
2023-12-17T17:36:22.877Z,2.01
2023-12-17T17:38:25.481Z,2.02
2023-12-17T17:40:27.917Z,2.06
2023-12-17T17:42:30.449Z,2.08
2023-12-17T17:44:32.896Z,2.08
2023-12-17T17:46:35.456Z,2.09
2023-12-17T17:48:38.758Z,2.12
2023-12-17T17:50:41.315Z,2.17
2023-12-17T17:52:44.119Z,2.18
2023-12-17T17:54:46.944Z,2.19
2023-12-17T17:56:49.609Z,2.21
2023-12-17T17:58:52.085Z,2.22
2023-12-17T18:00:57.831Z,2.26
2023-12-17T18:03:01.475Z,2.28
2023-12-17T18:05:04.698Z,2.26
2023-12-17T18:07:07.543Z,2.32
2023-12-17T18:09:10.464Z,2.32
2023-12-17T18:11:19.118Z,2.34
2023-12-17T18:13:23.530Z,2.35
2023-12-17T18:15:27.952Z,2.36
2023-12-17T18:17:30.747Z,2.40
2023-12-17T18:19:33.394Z,2.43
2023-12-17T18:21:39.176Z,2.42
2023-12-17T18:23:42.072Z,2.44
2023-12-17T18:25:46.016Z,2.46
2023-12-17T18:27:48.400Z,2.47
2023-12-17T18:29:50.828Z,2.50
2023-12-17T18:31:53.246Z,2.52
2023-12-17T18:33:57.992Z,2.54
2023-12-17T18:36:01.277Z,2.55
2023-12-17T18:38:04.146Z,2.55
2023-12-17T18:40:07.398Z,2.60
2023-12-17T18:42:10.394Z,2.61
2023-12-17T18:44:12.948Z,2.62
2023-12-17T18:46:16.513Z,2.65
2023-12-17T18:48:19.329Z,2.66
2023-12-17T18:50:22.134Z,2.67
2023-12-17T18:52:27.464Z,2.70
2023-12-17T18:54:30.345Z,2.70
2023-12-17T18:56:34.107Z,2.73
2023-12-17T18:58:36.615Z,2.76
2023-12-17T19:00:39.272Z,2.69
2023-12-17T19:02:44.287Z,2.75
2023-12-17T19:04:47.017Z,2.72
2023-12-17T19:06:49.904Z,2.76
2023-12-17T19:08:52.504Z,2.82
2023-12-17T19:10:56.185Z,2.86
2023-12-17T19:12:58.666Z,2.84
2023-12-17T19:15:01.928Z,2.87
2023-12-17T19:17:07.770Z,2.92
2023-12-17T19:19:13.048Z,2.93
2023-12-17T19:21:17.158Z,2.90
2023-12-17T19:23:21.898Z,2.93
2023-12-17T19:25:24.837Z,2.97
2023-12-17T19:27:27.792Z,2.99
2023-12-17T19:29:33.689Z,3.01
2023-12-17T19:31:36.531Z,3.02
2023-12-17T19:33:39.499Z,3.02
2023-12-17T19:35:45.405Z,3.07
2023-12-17T19:37:48.234Z,3.09
2023-12-17T19:39:54.078Z,3.08
2023-12-17T19:41:56.648Z,3.10
2023-12-17T19:43:59.603Z,3.12
2023-12-17T19:46:02.122Z,3.16
2023-12-17T19:48:05.593Z,3.15
2023-12-17T19:50:08.969Z,3.18
2023-12-17T19:52:12.880Z,3.21
2023-12-17T19:54:15.899Z,3.19
2023-12-17T19:56:19.891Z,3.26
2023-12-17T19:58:23.552Z,3.26
2023-12-17T20:00:26.388Z,3.29
2023-12-17T20:02:29.277Z,3.30
2023-12-17T20:04:31.722Z,3.34
2023-12-17T20:06:34.242Z,3.30
2023-12-17T20:08:40.336Z,3.35
2023-12-17T20:10:47.057Z,3.38
2023-12-17T20:12:49.647Z,3.37
2023-12-17T20:14:52.337Z,3.40
2023-12-17T20:16:54.799Z,3.42
2023-12-17T20:18:57.429Z,3.42
2023-12-17T20:21:02.321Z,3.40
2023-12-17T20:23:05.325Z,3.45
2023-12-17T20:25:09.061Z,3.49
2023-12-17T20:27:12.333Z,3.46
2023-12-17T20:29:17.488Z,3.50
2023-12-17T20:31:21.737Z,3.53
2023-12-17T20:33:24.431Z,3.52
2023-12-17T20:35:27.493Z,3.51
2023-12-17T20:37:29.956Z,3.56
2023-12-17T20:39:33.196Z,3.54
2023-12-17T20:41:35.680Z,3.56
2023-12-17T20:44:04.197Z,3.54
2023-12-17T20:46:07.459Z,3.60
2023-12-17T20:48:17.110Z,3.62
2023-12-17T20:50:19.819Z,3.64
2023-12-17T20:52:22.710Z,3.64
2023-12-17T20:54:25.934Z,3.65
2023-12-17T20:56:30.293Z,3.66
2023-12-17T20:58:32.800Z,3.66
2023-12-17T21:00:35.703Z,3.65
2023-12-17T21:02:38.350Z,3.70
2023-12-17T21:04:41.646Z,3.72
2023-12-17T21:06:45.044Z,3.71
2023-12-17T21:08:47.501Z,3.74
2023-12-17T21:10:49.986Z,3.73
2023-12-17T21:12:52.905Z,3.76
2023-12-17T21:14:55.964Z,3.80
2023-12-17T21:16:58.455Z,3.79
2023-12-17T21:19:01.008Z,3.78
2023-12-17T21:21:03.983Z,3.83
2023-12-17T21:23:08.401Z,3.82
2023-12-17T21:25:11.013Z,3.85
2023-12-17T21:27:36.966Z,3.86
2023-12-17T21:29:39.461Z,3.88
2023-12-17T21:31:42.098Z,3.90
2023-12-17T21:33:44.755Z,3.91
2023-12-17T21:35:47.288Z,3.89
2023-12-17T21:37:49.863Z,3.91
2023-12-17T21:39:52.311Z,3.93
2023-12-17T21:41:58.839Z,3.95
2023-12-17T21:44:02.360Z,3.96
2023-12-17T21:46:04.981Z,3.99
2023-12-17T21:48:07.854Z,3.97
2023-12-17T21:50:11.371Z,4.00
2023-12-17T21:52:22.581Z,4.05
2023-12-17T21:54:35.693Z,4.05
2023-12-17T21:56:38.438Z,4.06
2023-12-17T21:58:41.703Z,4.07
2023-12-17T22:00:44.267Z,4.05
2023-12-17T22:02:47.187Z,4.07
2023-12-17T22:04:50.496Z,4.08
2023-12-17T22:06:53.580Z,4.13
2023-12-17T22:09:01.081Z,4.12
2023-12-17T22:11:09.890Z,4.12
2023-12-17T22:13:13.472Z,4.12
2023-12-17T22:15:19.065Z,4.16
2023-12-17T22:17:21.606Z,4.19
2023-12-17T22:19:24.614Z,4.19
2023-12-17T22:21:29.170Z,4.21
2023-12-17T22:23:32.588Z,4.22
2023-12-17T22:25:35.377Z,4.23
2023-12-17T22:27:37.937Z,4.24
2023-12-17T22:29:40.441Z,4.22
2023-12-17T22:31:43.826Z,4.22
2023-12-17T22:33:46.933Z,4.28
2023-12-17T22:35:49.449Z,4.28
2023-12-17T22:37:52.383Z,4.28
2023-12-17T22:39:54.865Z,4.29
2023-12-17T22:41:57.970Z,4.31
2023-12-17T22:44:01.206Z,4.28
2023-12-17T22:46:04.641Z,4.32
2023-12-17T22:48:07.820Z,4.34
2023-12-17T22:50:12.034Z,4.34
2023-12-17T22:52:15.323Z,4.33
2023-12-17T22:54:19.068Z,4.35
2023-12-17T22:56:21.609Z,4.37
2023-12-17T22:58:24.594Z,4.37
2023-12-17T23:00:27.214Z,4.39
2023-12-17T23:02:30.488Z,4.40
2023-12-17T23:04:33.141Z,4.43
2023-12-17T23:06:36.517Z,4.43
2023-12-17T23:08:39.101Z,4.42
2023-12-17T23:10:41.651Z,4.44
2023-12-17T23:12:44.316Z,4.43
2023-12-17T23:14:48.321Z,4.47
2023-12-17T23:16:51.641Z,4.51
2023-12-17T23:18:54.188Z,4.50
2023-12-17T23:20:57.419Z,4.49
2023-12-17T23:23:00.896Z,4.52
2023-12-17T23:25:03.424Z,4.51
2023-12-17T23:27:06.545Z,4.56
2023-12-17T23:29:09.055Z,4.52
2023-12-17T23:31:11.649Z,4.58
2023-12-17T23:33:14.290Z,4.56
2023-12-17T23:35:17.478Z,4.59
2023-12-17T23:37:20.692Z,4.58
2023-12-17T23:39:24.115Z,4.60
2023-12-17T23:41:26.691Z,4.58
2023-12-17T23:43:29.180Z,4.56
2023-12-17T23:45:31.760Z,4.60
2023-12-17T23:47:34.589Z,4.63
2023-12-17T23:49:37.589Z,4.59
2023-12-17T23:51:40.595Z,4.60
2023-12-17T23:53:43.655Z,4.59
2023-12-17T23:55:46.572Z,4.64
2023-12-17T23:57:49.242Z,4.63
2023-12-17T23:59:52.333Z,4.65
